FVCE weather

Celina Airport
Celina, Mashonaland Central Province, Zimbabwe

Public forecast

Using degrees Celsius for public forecast. Weather courtesy of forecast.io.

METAR (pilot weather report)

Closest report is Robert Gabriel Mugabe International Airport, 28.5 nm (52.8 km) SSE. Retrieved 2019/05/22 05:00 UTC (1 hour ago):

FVRG 220500Z 09005KT CAVOK 12/04 Q1026 NOSIG

TAF (pilot weather forecast)

Forecast is more than 12 hours old.

Closest forecast is Robert Gabriel Mugabe International Airport, 28.5 nm (52.8 km) SSE. Retrieved 2019/05/21 06:00 UTC (1 day ago):

TAF FVRG 210400Z 2106/2212 VRB05KT CAVOK FM211800 10006KT